This is the latest recevied weather packets stored in our database for station/object N6SPP. If no packets are shown the sender has not sent any weather packets the latest 10 day(s).
| Time | Temp. | Humidity | Pressure | Rain* | Wind** | Luminosity | Snow |
|---|---|---|---|---|---|---|---|
| 1778115250 | 23.89° C | 58% | 1019.3 hPa | 0 mm | - | 185 W/m² | - |
| 1778114946 | 23.89° C | 57% | 1019.5 hPa | 0 mm | - | 195 W/m² | - |
| 1778114643 | 23.89° C | 56% | 1019.3 hPa | 0 mm | - | 234 W/m² | - |
| 1778114341 | 24.44° C | 55% | 1019.2 hPa | 0 mm | - | 247 W/m² | - |
| 1778114036 | 25° C | 55% | 1019.4 hPa | 0 mm | - | 262 W/m² | - |
| 1778113731 | 25° C | 53% | 1019.5 hPa | 0 mm | - | 276 W/m² | - |
| 1778113428 | 25° C | 54% | 1019.5 hPa | 0 mm | - | 283 W/m² | - |
| 1778113125 | 24.44° C | 54% | 1019.2 hPa | 0 mm | - | 71 W/m² | - |
| 1778112821 | 24.44° C | 54% | 1019.3 hPa | 0 mm | - | 158 W/m² | - |
| 1778112518 | 24.44° C | 55% | 1019.5 hPa | 0 mm | - | 194 W/m² | - |
| 1778112214 | 24.44° C | 54% | 1019.5 hPa | 0 mm | - | 348 W/m² | - |
| 1778111910 | 23.89° C | 54% | 1019.4 hPa | 0 mm | - | 319 W/m² | - |
| 1778111607 | 23.89° C | 55% | 1019.4 hPa | 0 mm | - | 374 W/m² | - |
| 1778111303 | 24.44° C | 54% | 1019.4 hPa | 0 mm | - | 389 W/m² | - |
| 1778111001 | 24.44° C | 54% | 1019.4 hPa | 0 mm | - | 388 W/m² | - |
| 1778110699 | 23.89° C | 54% | 1019.5 hPa | 0 mm | - | 395 W/m² | - |
| 1778110393 | 24.44° C | 53% | 1019.5 hPa | 0 mm | - | 432 W/m² | - |
| 1778110090 | 25° C | 53% | 1019.9 hPa | 0 mm | - | 447 W/m² | - |
| 1778109786 | 23.89° C | 54% | 1019.4 hPa | 0 mm | - | 459 W/m² | - |
| 1778109483 | 24.44° C | 54% | 1019.7 hPa | 0 mm | - | 432 W/m² | - |
| 1778109181 | 24.44° C | 54% | 1019.9 hPa | 0 mm | - | 461 W/m² | - |
| 1778108878 | 24.44° C | 53% | 1019.8 hPa | 0 mm | - | 400 W/m² | - |
| 1778108570 | 24.44° C | 53% | 1019.9 hPa | 0 mm | - | 484 W/m² | - |
| 1778108266 | 25° C | 52% | 1020 hPa | 0 mm | - | 527 W/m² | - |
| 1778107962 | 25° C | 52% | 1020 hPa | 0 mm | - | 539 W/m² | - |
* Rain latest hour (hover to see other rain measurements)
** Current wind speed in m/s (hover to see current wind gust speed)